sensor_id;sensor_type;location;lat;lon;timestamp;temperature;humidity
65462;DHT22;53236;43.666;18.444;2023-07-20T00:01:15;18.00;99.90
65462;DHT22;53236;43.666;18.444;2023-07-20T00:03:41;18.10;99.90
65462;DHT22;53236;43.666;18.444;2023-07-20T00:06:07;18.10;99.90
65462;DHT22;53236;43.666;18.444;2023-07-20T00:08:33;18.00;99.90
65462;DHT22;53236;43.666;18.444;2023-07-20T00:10:59;18.00;99.90
65462;DHT22;53236;43.666;18.444;2023-07-20T00:13:24;18.00;99.90
65462;DHT22;53236;43.666;18.444;2023-07-20T00:15:51;18.10;99.90
65462;DHT22;53236;43.666;18.444;2023-07-20T00:18:17;18.10;99.90
65462;DHT22;53236;43.666;18.444;2023-07-20T00:20:43;18.00;99.90
65462;DHT22;53236;43.666;18.444;2023-07-20T00:23:09;18.00;99.90
65462;DHT22;53236;43.666;18.444;2023-07-20T00:25:35;18.00;99.90
65462;DHT22;53236;43.666;18.444;2023-07-20T00:28:01;18.00;99.90
65462;DHT22;53236;43.666;18.444;2023-07-20T00:30:27;18.10;99.90
65462;DHT22;53236;43.666;18.444;2023-07-20T00:32:53;18.20;99.90
65462;DHT22;53236;43.666;18.444;2023-07-20T00:35:18;18.20;99.90
65462;DHT22;53236;43.666;18.444;2023-07-20T00:37:44;18.20;99.90
65462;DHT22;53236;43.666;18.444;2023-07-20T00:40:10;18.20;99.90
65462;DHT22;53236;43.666;18.444;2023-07-20T00:42:36;18.30;99.90
65462;DHT22;53236;43.666;18.444;2023-07-20T00:45:02;18.30;99.90
65462;DHT22;53236;43.666;18.444;2023-07-20T00:47:28;18.20;99.90
65462;DHT22;53236;43.666;18.444;2023-07-20T00:49:54;18.10;99.90
65462;DHT22;53236;43.666;18.444;2023-07-20T00:52:22;18.20;99.90
65462;DHT22;53236;43.666;18.444;2023-07-20T00:54:49;18.20;99.90
65462;DHT22;53236;43.666;18.444;2023-07-20T00:57:15;18.20;99.90
65462;DHT22;53236;43.666;18.444;2023-07-20T00:59:43;18.10;99.90
65462;DHT22;53236;43.666;18.444;2023-07-20T01:02:09;18.10;99.90
65462;DHT22;53236;43.666;18.444;2023-07-20T01:04:35;18.10;99.90
65462;DHT22;53236;43.666;18.444;2023-07-20T01:07:25;18.00;99.90
65462;DHT22;53236;43.666;18.444;2023-07-20T01:10:00;18.10;99.90
65462;DHT22;53236;43.666;18.444;2023-07-20T01:12:46;18.10;99.90
65462;DHT22;53236;43.666;18.444;2023-07-20T01:15:13;18.10;99.90
65462;DHT22;53236;43.666;18.444;2023-07-20T01:17:39;18.00;99.90
65462;DHT22;53236;43.666;18.444;2023-07-20T01:20:07;18.00;99.90
65462;DHT22;53236;43.666;18.444;2023-07-20T01:28:37;18.00;99.90
65462;DHT22;53236;43.666;18.444;2023-07-20T01:33:55;18.00;99.90
65462;DHT22;53236;43.666;18.444;2023-07-20T01:36:26;18.00;99.90
65462;DHT22;53236;43.666;18.444;2023-07-20T01:38:54;18.10;99.90
65462;DHT22;53236;43.666;18.444;2023-07-20T01:41:20;18.10;99.90
65462;DHT22;53236;43.666;18.444;2023-07-20T01:43:46;18.00;99.90
65462;DHT22;53236;43.666;18.444;2023-07-20T01:46:12;18.00;99.90
65462;DHT22;53236;43.666;18.444;2023-07-20T01:48:37;18.00;99.90
65462;DHT22;53236;43.666;18.444;2023-07-20T01:51:03;18.00;99.90
65462;DHT22;53236;43.666;18.444;2023-07-20T01:53:29;18.00;99.90
65462;DHT22;53236;43.666;18.444;2023-07-20T01:55:56;17.90;99.90
65462;DHT22;53236;43.666;18.444;2023-07-20T01:58:23;17.90;99.90
65462;DHT22;53236;43.666;18.444;2023-07-20T02:00:49;17.90;99.90
65462;DHT22;53236;43.666;18.444;2023-07-20T02:03:14;17.90;99.90
65462;DHT22;53236;43.666;18.444;2023-07-20T02:05:43;17.90;99.90
65462;DHT22;53236;43.666;18.444;2023-07-20T02:08:09;17.90;99.90
65462;DHT22;53236;43.666;18.444;2023-07-20T02:10:35;17.90;99.90
65462;DHT22;53236;43.666;18.444;2023-07-20T02:13:01;17.90;99.90
65462;DHT22;53236;43.666;18.444;2023-07-20T02:15:27;17.90;99.90
65462;DHT22;53236;43.666;18.444;2023-07-20T02:17:53;17.80;99.90
65462;DHT22;53236;43.666;18.444;2023-07-20T02:20:19;17.80;99.90
65462;DHT22;53236;43.666;18.444;2023-07-20T02:22:45;17.80;99.90
65462;DHT22;53236;43.666;18.444;2023-07-20T02:25:11;17.90;99.90
65462;DHT22;53236;43.666;18.444;2023-07-20T02:27:37;17.80;99.90
65462;DHT22;53236;43.666;18.444;2023-07-20T02:30:03;17.70;99.90
65462;DHT22;53236;43.666;18.444;2023-07-20T02:32:30;17.80;99.90
65462;DHT22;53236;43.666;18.444;2023-07-20T02:34:56;17.70;99.90
65462;DHT22;53236;43.666;18.444;2023-07-20T02:37:21;17.80;99.90
65462;DHT22;53236;43.666;18.444;2023-07-20T02:39:47;17.70;99.90
65462;DHT22;53236;43.666;18.444;2023-07-20T02:42:13;17.70;99.90
65462;DHT22;53236;43.666;18.444;2023-07-20T02:44:39;17.70;99.90
65462;DHT22;53236;43.666;18.444;2023-07-20T02:47:05;17.60;99.90
65462;DHT22;53236;43.666;18.444;2023-07-20T02:49:31;17.50;99.90
65462;DHT22;53236;43.666;18.444;2023-07-20T02:51:57;17.50;99.90
65462;DHT22;53236;43.666;18.444;2023-07-20T02:54:23;17.50;99.90
65462;DHT22;53236;43.666;18.444;2023-07-20T02:56:49;17.50;99.90
65462;DHT22;53236;43.666;18.444;2023-07-20T02:59:15;17.60;99.90
65462;DHT22;53236;43.666;18.444;2023-07-20T03:01:40;17.80;99.90
65462;DHT22;53236;43.666;18.444;2023-07-20T03:04:09;17.90;99.90
65462;DHT22;53236;43.666;18.444;2023-07-20T03:06:38;18.00;99.90
65462;DHT22;53236;43.666;18.444;2023-07-20T09:09:40;34.90;51.50
65462;DHT22;53236;43.666;18.444;2023-07-20T09:12:15;35.20;51.70
65462;DHT22;53236;43.666;18.444;2023-07-20T09:14:44;35.30;52.00
65462;DHT22;53236;43.666;18.444;2023-07-20T09:17:14;35.00;51.80
65462;DHT22;53236;43.666;18.444;2023-07-20T09:19:47;34.10;50.20
65462;DHT22;53236;43.666;18.444;2023-07-20T09:22:13;33.20;52.40
65462;DHT22;53236;43.666;18.444;2023-07-20T09:24:39;33.10;52.80
65462;DHT22;53236;43.666;18.444;2023-07-20T09:27:07;33.00;51.90
65462;DHT22;53236;43.666;18.444;2023-07-20T09:29:32;32.60;53.20
65462;DHT22;53236;43.666;18.444;2023-07-20T09:32:00;31.80;54.40
65462;DHT22;53236;43.666;18.444;2023-07-20T09:34:28;31.20;58.10
65462;DHT22;53236;43.666;18.444;2023-07-20T09:36:53;31.00;58.80
65462;DHT22;53236;43.666;18.444;2023-07-20T09:39:20;30.90;60.70
65462;DHT22;53236;43.666;18.444;2023-07-20T09:41:46;30.50;60.20
65462;DHT22;53236;43.666;18.444;2023-07-20T09:44:16;30.40;59.30
65462;DHT22;53236;43.666;18.444;2023-07-20T09:46:50;30.70;59.80
65462;DHT22;53236;43.666;18.444;2023-07-20T09:49:17;30.50;56.90
65462;DHT22;53236;43.666;18.444;2023-07-20T09:51:44;30.50;55.40
65462;DHT22;53236;43.666;18.444;2023-07-20T09:54:11;30.40;56.20
65462;DHT22;53236;43.666;18.444;2023-07-20T09:56:39;30.50;53.50
65462;DHT22;53236;43.666;18.444;2023-07-20T09:59:06;30.80;55.70
65462;DHT22;53236;43.666;18.444;2023-07-20T10:01:33;30.90;55.80
65462;DHT22;53236;43.666;18.444;2023-07-20T10:04:03;31.10;55.10
65462;DHT22;53236;43.666;18.444;2023-07-20T10:06:32;31.00;52.90
65462;DHT22;53236;43.666;18.444;2023-07-20T10:09:01;30.90;57.00
65462;DHT22;53236;43.666;18.444;2023-07-20T10:11:30;30.80;55.90
65462;DHT22;53236;43.666;18.444;2023-07-20T10:13:58;30.50;55.10
65462;DHT22;53236;43.666;18.444;2023-07-20T10:20:03;30.50;54.50
65462;DHT22;53236;43.666;18.444;2023-07-20T10:22:06;30.00;56.40
65462;DHT22;53236;43.666;18.444;2023-07-20T10:24:34;30.00;56.10
65462;DHT22;53236;43.666;18.444;2023-07-20T10:27:00;30.20;58.20
65462;DHT22;53236;43.666;18.444;2023-07-20T10:29:27;30.00;55.50
65462;DHT22;53236;43.666;18.444;2023-07-20T10:31:54;29.80;58.50
65462;DHT22;53236;43.666;18.444;2023-07-20T10:34:21;29.50;57.70
65462;DHT22;53236;43.666;18.444;2023-07-20T10:36:47;28.90;57.10
65462;DHT22;53236;43.666;18.444;2023-07-20T10:39:27;28.80;57.40
65462;DHT22;53236;43.666;18.444;2023-07-20T10:42:23;28.80;60.00
65462;DHT22;53236;43.666;18.444;2023-07-20T10:44:51;29.10;58.60
65462;DHT22;53236;43.666;18.444;2023-07-20T10:47:17;29.20;53.30
65462;DHT22;53236;43.666;18.444;2023-07-20T10:49:59;29.30;59.50
65462;DHT22;53236;43.666;18.444;2023-07-20T10:52:39;29.50;56.20
65462;DHT22;53236;43.666;18.444;2023-07-20T10:55:14;29.50;55.60
65462;DHT22;53236;43.666;18.444;2023-07-20T10:57:41;29.30;57.70
65462;DHT22;53236;43.666;18.444;2023-07-20T11:00:14;29.30;57.40
65462;DHT22;53236;43.666;18.444;2023-07-20T11:02:49;29.30;57.90
65462;DHT22;53236;43.666;18.444;2023-07-20T11:05:39;29.20;56.00
65462;DHT22;53236;43.666;18.444;2023-07-20T11:08:10;29.20;56.60
65462;DHT22;53236;43.666;18.444;2023-07-20T11:10:36;29.40;55.80
65462;DHT22;53236;43.666;18.444;2023-07-20T11:13:23;29.50;57.30
65462;DHT22;53236;43.666;18.444;2023-07-20T11:18:26;29.60;59.80
65462;DHT22;53236;43.666;18.444;2023-07-20T11:20:52;29.70;61.20
65462;DHT22;53236;43.666;18.444;2023-07-20T11:23:20;29.80;61.10
65462;DHT22;53236;43.666;18.444;2023-07-20T11:25:46;29.70;60.90
65462;DHT22;53236;43.666;18.444;2023-07-20T11:28:12;29.60;58.10
65462;DHT22;53236;43.666;18.444;2023-07-20T11:30:38;29.60;61.70
65462;DHT22;53236;43.666;18.444;2023-07-20T11:33:06;29.60;59.40
65462;DHT22;53236;43.666;18.444;2023-07-20T11:35:45;29.30;58.70
65462;DHT22;53236;43.666;18.444;2023-07-20T11:38:16;29.40;61.80
65462;DHT22;53236;43.666;18.444;2023-07-20T11:40:45;29.30;60.20
65462;DHT22;53236;43.666;18.444;2023-07-20T11:43:14;29.30;61.60
65462;DHT22;53236;43.666;18.444;2023-07-20T11:45:40;29.30;60.70
65462;DHT22;53236;43.666;18.444;2023-07-20T11:48:06;29.30;59.00
65462;DHT22;53236;43.666;18.444;2023-07-20T11:50:32;29.30;62.90
65462;DHT22;53236;43.666;18.444;2023-07-20T11:53:03;29.10;58.40
65462;DHT22;53236;43.666;18.444;2023-07-20T11:55:29;29.20;61.30
65462;DHT22;53236;43.666;18.444;2023-07-20T11:58:21;29.30;57.80
65462;DHT22;53236;43.666;18.444;2023-07-20T12:00:47;29.30;59.90
65462;DHT22;53236;43.666;18.444;2023-07-20T12:03:13;29.00;58.40
65462;DHT22;53236;43.666;18.444;2023-07-20T12:05:39;29.10;61.50
65462;DHT22;53236;43.666;18.444;2023-07-20T12:08:07;29.10;60.20
65462;DHT22;53236;43.666;18.444;2023-07-20T12:10:33;29.20;60.90
65462;DHT22;53236;43.666;18.444;2023-07-20T12:13:02;29.20;56.20
65462;DHT22;53236;43.666;18.444;2023-07-20T12:15:32;29.00;61.00
65462;DHT22;53236;43.666;18.444;2023-07-20T12:18:00;29.10;63.30
65462;DHT22;53236;43.666;18.444;2023-07-20T12:20:36;28.90;64.70
65462;DHT22;53236;43.666;18.444;2023-07-20T12:23:09;28.80;59.60
65462;DHT22;53236;43.666;18.444;2023-07-20T12:25:45;28.90;61.90
65462;DHT22;53236;43.666;18.444;2023-07-20T12:28:17;28.80;62.20
65462;DHT22;53236;43.666;18.444;2023-07-20T12:30:44;28.80;65.10
65462;DHT22;53236;43.666;18.444;2023-07-20T12:33:10;28.80;65.20
65462;DHT22;53236;43.666;18.444;2023-07-20T12:35:37;28.90;60.60
65462;DHT22;53236;43.666;18.444;2023-07-20T12:38:03;28.80;63.00
65462;DHT22;53236;43.666;18.444;2023-07-20T12:40:29;29.00;63.70
65462;DHT22;53236;43.666;18.444;2023-07-20T12:42:55;29.20;60.70
65462;DHT22;53236;43.666;18.444;2023-07-20T12:45:21;29.10;59.70
65462;DHT22;53236;43.666;18.444;2023-07-20T12:47:47;29.20;62.10
65462;DHT22;53236;43.666;18.444;2023-07-20T12:50:13;29.20;60.80
65462;DHT22;53236;43.666;18.444;2023-07-20T12:52:40;29.30;59.20
65462;DHT22;53236;43.666;18.444;2023-07-20T12:55:07;29.10;59.90
65462;DHT22;53236;43.666;18.444;2023-07-20T12:57:36;29.00;59.00
65462;DHT22;53236;43.666;18.444;2023-07-20T13:00:04;29.00;59.90
65462;DHT22;53236;43.666;18.444;2023-07-20T13:02:32;28.90;56.90
65462;DHT22;53236;43.666;18.444;2023-07-20T13:04:58;28.70;59.40
65462;DHT22;53236;43.666;18.444;2023-07-20T13:07:35;28.90;60.20
65462;DHT22;53236;43.666;18.444;2023-07-20T13:10:02;29.10;61.10
65462;DHT22;53236;43.666;18.444;2023-07-20T13:12:31;29.10;60.20
65462;DHT22;53236;43.666;18.444;2023-07-20T13:14:57;29.10;61.50
65462;DHT22;53236;43.666;18.444;2023-07-20T13:17:29;29.00;56.30
65462;DHT22;53236;43.666;18.444;2023-07-20T13:19:55;29.10;56.70
65462;DHT22;53236;43.666;18.444;2023-07-20T13:22:21;29.10;59.20
65462;DHT22;53236;43.666;18.444;2023-07-20T13:24:47;29.20;58.30
65462;DHT22;53236;43.666;18.444;2023-07-20T13:27:16;29.10;56.90
65462;DHT22;53236;43.666;18.444;2023-07-20T13:29:42;29.10;61.90
65462;DHT22;53236;43.666;18.444;2023-07-20T13:32:09;29.10;57.60
65462;DHT22;53236;43.666;18.444;2023-07-20T13:34:35;29.10;56.30
65462;DHT22;53236;43.666;18.444;2023-07-20T13:37:01;29.20;56.70
65462;DHT22;53236;43.666;18.444;2023-07-20T13:39:27;29.30;58.10
65462;DHT22;53236;43.666;18.444;2023-07-20T13:41:55;29.40;58.40
65462;DHT22;53236;43.666;18.444;2023-07-20T13:44:21;29.30;56.00
65462;DHT22;53236;43.666;18.444;2023-07-20T13:46:48;29.30;59.30
65462;DHT22;53236;43.666;18.444;2023-07-20T13:49:13;29.20;56.60
65462;DHT22;53236;43.666;18.444;2023-07-20T13:51:41;29.20;54.50
65462;DHT22;53236;43.666;18.444;2023-07-20T13:54:07;29.00;55.20
65462;DHT22;53236;43.666;18.444;2023-07-20T13:56:32;29.00;54.30
65462;DHT22;53236;43.666;18.444;2023-07-20T13:58:58;29.20;58.00
65462;DHT22;53236;43.666;18.444;2023-07-20T14:01:24;29.30;56.70
65462;DHT22;53236;43.666;18.444;2023-07-20T14:03:50;29.40;55.30
65462;DHT22;53236;43.666;18.444;2023-07-20T14:06:16;29.50;54.70
65462;DHT22;53236;43.666;18.444;2023-07-20T14:08:43;29.40;55.30
65462;DHT22;53236;43.666;18.444;2023-07-20T14:11:12;29.40;56.00
65462;DHT22;53236;43.666;18.444;2023-07-20T14:13:38;29.30;57.70
65462;DHT22;53236;43.666;18.444;2023-07-20T14:16:04;29.20;54.80
65462;DHT22;53236;43.666;18.444;2023-07-20T14:18:30;29.30;55.30
65462;DHT22;53236;43.666;18.444;2023-07-20T14:20:56;29.20;56.80
65462;DHT22;53236;43.666;18.444;2023-07-20T14:23:22;29.30;56.40
65462;DHT22;53236;43.666;18.444;2023-07-20T14:25:48;29.20;57.40
65462;DHT22;53236;43.666;18.444;2023-07-20T14:28:14;29.00;56.10
65462;DHT22;53236;43.666;18.444;2023-07-20T14:30:41;29.10;57.70
65462;DHT22;53236;43.666;18.444;2023-07-20T14:33:07;29.20;58.30
65462;DHT22;53236;43.666;18.444;2023-07-20T14:35:33;29.10;58.70
65462;DHT22;53236;43.666;18.444;2023-07-20T14:38:00;29.00;56.00
65462;DHT22;53236;43.666;18.444;2023-07-20T14:40:26;29.00;58.80
65462;DHT22;53236;43.666;18.444;2023-07-20T14:42:52;29.00;60.10
65462;DHT22;53236;43.666;18.444;2023-07-20T14:45:18;28.90;60.40
65462;DHT22;53236;43.666;18.444;2023-07-20T14:47:44;28.90;59.90
65462;DHT22;53236;43.666;18.444;2023-07-20T14:50:11;28.80;62.20
65462;DHT22;53236;43.666;18.444;2023-07-20T14:52:37;28.70;61.70
65462;DHT22;53236;43.666;18.444;2023-07-20T14:55:03;28.80;61.00
65462;DHT22;53236;43.666;18.444;2023-07-20T14:57:30;28.90;59.80
65462;DHT22;53236;43.666;18.444;2023-07-20T14:59:55;28.90;61.90
65462;DHT22;53236;43.666;18.444;2023-07-20T15:02:21;29.00;63.40
65462;DHT22;53236;43.666;18.444;2023-07-20T15:04:51;29.00;63.30
65462;DHT22;53236;43.666;18.444;2023-07-20T15:07:18;29.10;60.70
65462;DHT22;53236;43.666;18.444;2023-07-20T15:09:45;29.20;61.40
65462;DHT22;53236;43.666;18.444;2023-07-20T15:12:11;29.00;60.90
65462;DHT22;53236;43.666;18.444;2023-07-20T15:14:41;28.80;60.40
65462;DHT22;53236;43.666;18.444;2023-07-20T15:17:10;28.60;62.10
65462;DHT22;53236;43.666;18.444;2023-07-20T15:19:36;28.40;63.00
65462;DHT22;53236;43.666;18.444;2023-07-20T15:22:03;28.20;63.80
65462;DHT22;53236;43.666;18.444;2023-07-20T15:24:30;28.30;63.30
65462;DHT22;53236;43.666;18.444;2023-07-20T15:27:00;28.10;63.30
65462;DHT22;53236;43.666;18.444;2023-07-20T15:29:28;28.10;64.40
65462;DHT22;53236;43.666;18.444;2023-07-20T15:31:54;28.10;64.30
65462;DHT22;53236;43.666;18.444;2023-07-20T15:34:19;28.10;63.00
65462;DHT22;53236;43.666;18.444;2023-07-20T15:36:45;28.20;65.70
65462;DHT22;53236;43.666;18.444;2023-07-20T15:39:11;28.10;65.90
65462;DHT22;53236;43.666;18.444;2023-07-20T15:41:37;28.10;65.80
65462;DHT22;53236;43.666;18.444;2023-07-20T15:44:03;28.00;69.40
65462;DHT22;53236;43.666;18.444;2023-07-20T15:49:09;27.70;70.60
65462;DHT22;53236;43.666;18.444;2023-07-20T15:51:36;27.70;70.20
65462;DHT22;53236;43.666;18.444;2023-07-20T15:54:02;27.50;71.00
65462;DHT22;53236;43.666;18.444;2023-07-20T15:56:28;27.50;70.50
65462;DHT22;53236;43.666;18.444;2023-07-20T15:58:54;27.20;72.60
65462;DHT22;53236;43.666;18.444;2023-07-20T16:01:20;27.10;73.20
65462;DHT22;53236;43.666;18.444;2023-07-20T16:03:46;27.10;74.50
65462;DHT22;53236;43.666;18.444;2023-07-20T16:06:13;27.10;76.30
65462;DHT22;53236;43.666;18.444;2023-07-20T16:08:39;27.10;77.20
65462;DHT22;53236;43.666;18.444;2023-07-20T16:11:04;27.10;82.90
65462;DHT22;53236;43.666;18.444;2023-07-20T16:13:30;27.10;89.80
65462;DHT22;53236;43.666;18.444;2023-07-20T16:15:56;27.10;91.70
65462;DHT22;53236;43.666;18.444;2023-07-20T16:18:22;27.00;92.70
65462;DHT22;53236;43.666;18.444;2023-07-20T16:20:48;26.80;98.50
65462;DHT22;53236;43.666;18.444;2023-07-20T16:23:13;26.70;95.30
65462;DHT22;53236;43.666;18.444;2023-07-20T16:25:39;26.60;99.90
65462;DHT22;53236;43.666;18.444;2023-07-20T16:28:05;26.30;99.90
65462;DHT22;53236;43.666;18.444;2023-07-20T16:30:31;26.20;99.40
65462;DHT22;53236;43.666;18.444;2023-07-20T16:32:57;26.30;95.90
65462;DHT22;53236;43.666;18.444;2023-07-20T16:35:28;26.30;92.30
65462;DHT22;53236;43.666;18.444;2023-07-20T16:37:55;26.30;92.20
65462;DHT22;53236;43.666;18.444;2023-07-20T16:40:21;26.30;92.80
65462;DHT22;53236;43.666;18.444;2023-07-20T16:42:46;26.40;92.70
65462;DHT22;53236;43.666;18.444;2023-07-20T16:45:12;26.50;94.20
65462;DHT22;53236;43.666;18.444;2023-07-20T16:47:38;26.40;96.90
65462;DHT22;53236;43.666;18.444;2023-07-20T16:50:05;26.50;93.90
65462;DHT22;53236;43.666;18.444;2023-07-20T16:52:31;26.40;96.10
65462;DHT22;53236;43.666;18.444;2023-07-20T16:54:56;26.50;96.90
65462;DHT22;53236;43.666;18.444;2023-07-20T16:57:22;26.40;97.70
65462;DHT22;53236;43.666;18.444;2023-07-20T16:59:48;26.30;99.90
65462;DHT22;53236;43.666;18.444;2023-07-20T17:02:14;26.20;99.00
65462;DHT22;53236;43.666;18.444;2023-07-20T17:04:40;26.00;95.60
65462;DHT22;53236;43.666;18.444;2023-07-20T17:07:06;25.90;96.40
65462;DHT22;53236;43.666;18.444;2023-07-20T17:09:32;25.90;96.70
65462;DHT22;53236;43.666;18.444;2023-07-20T17:11:59;25.80;98.30
65462;DHT22;53236;43.666;18.444;2023-07-20T17:14:25;25.70;99.90
65462;DHT22;53236;43.666;18.444;2023-07-20T17:16:51;25.60;99.90
65462;DHT22;53236;43.666;18.444;2023-07-20T17:19:17;25.40;99.90
65462;DHT22;53236;43.666;18.444;2023-07-20T17:21:46;25.30;99.90
65462;DHT22;53236;43.666;18.444;2023-07-20T17:24:12;25.20;99.90
65462;DHT22;53236;43.666;18.444;2023-07-20T17:26:39;25.00;99.90
65462;DHT22;53236;43.666;18.444;2023-07-20T17:29:04;24.90;99.90
65462;DHT22;53236;43.666;18.444;2023-07-20T17:31:30;24.80;99.90
65462;DHT22;53236;43.666;18.444;2023-07-20T17:33:56;24.70;99.90
65462;DHT22;53236;43.666;18.444;2023-07-20T17:36:22;24.50;99.90
65462;DHT22;53236;43.666;18.444;2023-07-20T17:38:48;24.50;99.90
65462;DHT22;53236;43.666;18.444;2023-07-20T17:41:14;24.30;99.90
65462;DHT22;53236;43.666;18.444;2023-07-20T17:43:40;24.10;99.90
65462;DHT22;53236;43.666;18.444;2023-07-20T17:46:05;24.00;99.90
65462;DHT22;53236;43.666;18.444;2023-07-20T17:48:32;23.90;99.90
65462;DHT22;53236;43.666;18.444;2023-07-20T17:50:58;23.90;99.90
65462;DHT22;53236;43.666;18.444;2023-07-20T17:53:24;23.80;99.90
65462;DHT22;53236;43.666;18.444;2023-07-20T17:55:53;23.70;99.90
65462;DHT22;53236;43.666;18.444;2023-07-20T17:58:20;23.70;99.90
65462;DHT22;53236;43.666;18.444;2023-07-20T18:00:46;23.50;99.90
65462;DHT22;53236;43.666;18.444;2023-07-20T18:03:11;23.50;99.90
65462;DHT22;53236;43.666;18.444;2023-07-20T18:05:37;23.30;99.90
65462;DHT22;53236;43.666;18.444;2023-07-20T18:08:04;23.20;99.90
65462;DHT22;53236;43.666;18.444;2023-07-20T18:10:29;23.10;99.90
65462;DHT22;53236;43.666;18.444;2023-07-20T18:12:55;23.00;99.90
65462;DHT22;53236;43.666;18.444;2023-07-20T18:15:22;22.90;99.90
65462;DHT22;53236;43.666;18.444;2023-07-20T18:17:48;22.70;99.90
65462;DHT22;53236;43.666;18.444;2023-07-20T18:20:14;22.50;99.90
65462;DHT22;53236;43.666;18.444;2023-07-20T18:22:39;22.40;99.90
65462;DHT22;53236;43.666;18.444;2023-07-20T18:25:06;22.30;99.90
65462;DHT22;53236;43.666;18.444;2023-07-20T18:27:32;22.20;99.90
65462;DHT22;53236;43.666;18.444;2023-07-20T18:29:58;22.10;99.90
65462;DHT22;53236;43.666;18.444;2023-07-20T18:32:24;22.10;99.90
65462;DHT22;53236;43.666;18.444;2023-07-20T18:34:51;21.90;99.90
65462;DHT22;53236;43.666;18.444;2023-07-20T18:37:16;21.90;99.90
65462;DHT22;53236;43.666;18.444;2023-07-20T18:39:48;21.80;99.90
65462;DHT22;53236;43.666;18.444;2023-07-20T18:42:14;21.70;99.90
65462;DHT22;53236;43.666;18.444;2023-07-20T18:44:40;21.60;99.90
65462;DHT22;53236;43.666;18.444;2023-07-20T18:47:07;21.50;99.90
65462;DHT22;53236;43.666;18.444;2023-07-20T18:49:35;21.40;99.90
65462;DHT22;53236;43.666;18.444;2023-07-20T18:52:01;21.40;99.90
65462;DHT22;53236;43.666;18.444;2023-07-20T18:54:27;21.30;99.90
65462;DHT22;53236;43.666;18.444;2023-07-20T18:56:53;21.30;99.90
65462;DHT22;53236;43.666;18.444;2023-07-20T18:59:19;21.10;99.90
65462;DHT22;53236;43.666;18.444;2023-07-20T19:01:44;21.10;99.90
65462;DHT22;53236;43.666;18.444;2023-07-20T19:04:11;21.00;99.90
65462;DHT22;53236;43.666;18.444;2023-07-20T19:06:37;21.00;99.90
65462;DHT22;53236;43.666;18.444;2023-07-20T19:09:03;20.90;99.90
65462;DHT22;53236;43.666;18.444;2023-07-20T19:11:30;20.70;99.90
65462;DHT22;53236;43.666;18.444;2023-07-20T19:13:55;20.60;99.90
65462;DHT22;53236;43.666;18.444;2023-07-20T19:16:21;20.60;99.90
65462;DHT22;53236;43.666;18.444;2023-07-20T19:18:49;20.60;99.90
65462;DHT22;53236;43.666;18.444;2023-07-20T19:21:16;20.50;99.90
65462;DHT22;53236;43.666;18.444;2023-07-20T19:23:42;20.50;99.90
65462;DHT22;53236;43.666;18.444;2023-07-20T19:26:08;20.50;99.90
65462;DHT22;53236;43.666;18.444;2023-07-20T19:28:36;20.50;99.90
65462;DHT22;53236;43.666;18.444;2023-07-20T19:31:05;20.40;99.90
65462;DHT22;53236;43.666;18.444;2023-07-20T19:33:31;20.30;99.90
65462;DHT22;53236;43.666;18.444;2023-07-20T19:35:57;20.20;99.90
65462;DHT22;53236;43.666;18.444;2023-07-20T19:38:26;20.20;99.90
65462;DHT22;53236;43.666;18.444;2023-07-20T19:40:53;20.10;99.90
65462;DHT22;53236;43.666;18.444;2023-07-20T19:43:20;20.00;99.90
65462;DHT22;53236;43.666;18.444;2023-07-20T19:45:49;19.90;99.90
65462;DHT22;53236;43.666;18.444;2023-07-20T19:48:16;19.80;99.90
65462;DHT22;53236;43.666;18.444;2023-07-20T19:50:46;19.80;99.90
65462;DHT22;53236;43.666;18.444;2023-07-20T19:53:14;19.70;99.90
65462;DHT22;53236;43.666;18.444;2023-07-20T19:55:39;19.60;99.90
65462;DHT22;53236;43.666;18.444;2023-07-20T19:58:05;19.60;99.90
65462;DHT22;53236;43.666;18.444;2023-07-20T20:00:31;19.60;99.90
65462;DHT22;53236;43.666;18.444;2023-07-20T20:02:57;19.70;99.90
65462;DHT22;53236;43.666;18.444;2023-07-20T20:05:23;19.60;99.90
65462;DHT22;53236;43.666;18.444;2023-07-20T20:07:50;19.60;99.90
65462;DHT22;53236;43.666;18.444;2023-07-20T20:10:16;19.60;99.90
65462;DHT22;53236;43.666;18.444;2023-07-20T20:12:42;19.70;99.90
65462;DHT22;53236;43.666;18.444;2023-07-20T20:15:08;19.60;99.90
65462;DHT22;53236;43.666;18.444;2023-07-20T20:17:34;19.60;99.90
65462;DHT22;53236;43.666;18.444;2023-07-20T20:20:01;19.50;99.90
65462;DHT22;53236;43.666;18.444;2023-07-20T20:22:27;19.30;99.90
65462;DHT22;53236;43.666;18.444;2023-07-20T20:24:52;19.20;99.90
65462;DHT22;53236;43.666;18.444;2023-07-20T20:27:18;19.10;99.90
65462;DHT22;53236;43.666;18.444;2023-07-20T20:29:44;19.10;99.90
65462;DHT22;53236;43.666;18.444;2023-07-20T20:32:10;19.00;99.90
65462;DHT22;53236;43.666;18.444;2023-07-20T20:34:36;19.00;99.90
65462;DHT22;53236;43.666;18.444;2023-07-20T20:37:02;18.90;99.90
65462;DHT22;53236;43.666;18.444;2023-07-20T20:39:28;18.90;99.90
65462;DHT22;53236;43.666;18.444;2023-07-20T20:41:54;19.00;99.90
65462;DHT22;53236;43.666;18.444;2023-07-20T20:44:20;19.00;99.90
65462;DHT22;53236;43.666;18.444;2023-07-20T20:46:51;19.00;99.90
65462;DHT22;53236;43.666;18.444;2023-07-20T20:49:26;18.90;99.90
65462;DHT22;53236;43.666;18.444;2023-07-20T20:51:53;18.80;99.90
65462;DHT22;53236;43.666;18.444;2023-07-20T20:54:19;18.70;99.90
65462;DHT22;53236;43.666;18.444;2023-07-20T20:56:45;18.70;99.90
65462;DHT22;53236;43.666;18.444;2023-07-20T20:59:10;18.60;99.90
65462;DHT22;53236;43.666;18.444;2023-07-20T21:01:36;18.70;99.90
65462;DHT22;53236;43.666;18.444;2023-07-20T21:04:02;18.70;99.90
65462;DHT22;53236;43.666;18.444;2023-07-20T21:06:28;18.70;99.90
65462;DHT22;53236;43.666;18.444;2023-07-20T21:08:54;18.60;99.90
65462;DHT22;53236;43.666;18.444;2023-07-20T21:11:20;18.60;99.90
65462;DHT22;53236;43.666;18.444;2023-07-20T21:13:46;18.60;99.90
65462;DHT22;53236;43.666;18.444;2023-07-20T21:16:12;18.60;99.90
65462;DHT22;53236;43.666;18.444;2023-07-20T21:18:37;18.40;99.90
65462;DHT22;53236;43.666;18.444;2023-07-20T21:21:04;18.40;99.90
65462;DHT22;53236;43.666;18.444;2023-07-20T21:23:30;18.50;99.90
65462;DHT22;53236;43.666;18.444;2023-07-20T21:25:56;18.50;99.90
65462;DHT22;53236;43.666;18.444;2023-07-20T21:28:22;18.40;99.90
65462;DHT22;53236;43.666;18.444;2023-07-20T21:31:00;18.50;99.90
65462;DHT22;53236;43.666;18.444;2023-07-20T21:33:26;18.50;99.90